Time;durP1;ratioP1;P1;durP2;ratioP2;P2;SDS_P1;SDS_P2;PMS_P1;PMS_P2;Temp;Humidity;BMP_temperature;BMP_pressure;BME280_temperature;BME280_humidity;BME280_pressure;Samples;Min_cycle;Max_cycle;Signal;HPM_P1;HPM_P2
2023/06/07 00:00:54;;;;;;;6.70;6.10;;;;;;;16.60;63.99;99617.33;437092;1251;139577;-66
2023/06/07 00:11:00;;;;;;;10.70;6.70;;;;;;;16.48;64.60;99616.72;436884;1254;139172;-65
2023/06/07 00:21:07;;;;;;;8.60;5.40;;;;;;;16.36;65.13;99612.67;436631;1251;140131;-66
2023/06/07 00:31:13;;;;;;;11.00;7.10;;;;;;;16.27;65.52;99612.59;436858;1251;140259;-65
2023/06/07 00:41:20;;;;;;;12.50;6.30;;;;;;;16.36;65.27;99604.03;437084;1251;139348;-64
2023/06/07 00:51:28;;;;;;;7.70;6.70;;;;;;;16.48;64.53;99602.42;436547;1253;140909;-65
2023/06/07 01:01:34;;;;;;;9.30;5.50;;;;;;;16.53;63.85;99604.35;436779;1253;140640;-65
2023/06/07 01:11:41;;;;;;;6.90;5.80;;;;;;;16.50;63.41;99603.21;436762;1251;139704;-66
2023/06/07 01:21:50;;;;;;;8.10;5.90;;;;;;;16.42;63.34;99603.34;436892;1254;139600;-65
2023/06/07 01:31:58;;;;;;;8.20;5.50;;;;;;;16.13;64.17;99601.64;436940;1251;139568;-64
2023/06/07 01:42:03;;;;;;;;;;;;;;;15.78;64.84;99590.61;437304;1253;139168;-65
2023/06/07 01:52:09;;;;;;;7.40;6.00;;;;;;;15.46;65.56;99587.36;437165;1253;125580;-65
2023/06/07 02:02:25;;;;;;;8.10;5.40;;;;;;;15.19;66.09;99581.30;436722;1253;139229;-64
2023/06/07 02:12:34;;;;;;;8.50;7.60;;;;;;;14.96;66.65;99576.08;436753;1252;139243;-65
2023/06/07 02:22:39;;;;;;;8.80;6.60;;;;;;;14.78;67.33;99566.65;436833;1253;140228;-66
2023/06/07 02:32:48;;;;;;;8.50;6.00;;;;;;;14.62;67.68;99566.49;436711;1254;141564;-66
2023/06/07 02:42:54;;;;;;;9.20;6.80;;;;;;;14.46;68.14;99566.02;437230;1251;140345;-65
2023/06/07 02:53:01;;;;;;;12.20;7.50;;;;;;;14.49;68.49;99563.31;437016;1253;139959;-65
2023/06/07 03:03:07;;;;;;;7.50;6.40;;;;;;;14.85;68.36;99571.02;437210;1251;139869;-65
2023/06/07 03:13:14;;;;;;;15.10;7.10;;;;;;;16.47;67.61;99573.28;436680;1251;138971;-66
2023/06/07 03:23:20;;;;;;;11.20;7.10;;;;;;;18.28;63.69;99573.23;436608;1251;140279;-66
2023/06/07 03:33:26;;;;;;;7.50;4.80;;;;;;;18.98;61.24;99577.65;436536;1251;140448;-65
2023/06/07 03:43:31;;;;;;;7.60;5.40;;;;;;;19.44;57.56;99579.84;436744;1251;138765;-66
2023/06/07 03:53:39;;;;;;;10.00;5.90;;;;;;;19.87;54.48;99586.66;436778;1251;138574;-65
2023/06/07 04:03:44;;;;;;;6.80;4.30;;;;;;;24.35;50.30;99582.31;437180;1253;141051;-67
2023/06/07 04:13:51;;;;;;;7.70;3.70;;;;;;;30.55;41.66;99580.50;437588;1251;138356;-67
2023/06/07 04:23:57;;;;;;;4.10;2.80;;;;;;;34.47;34.36;99572.09;437127;1254;139177;-67
2023/06/07 04:34:04;;;;;;;4.40;2.80;;;;;;;36.81;28.63;99569.30;436854;1255;138513;-65
2023/06/07 04:44:11;;;;;;;4.00;3.00;;;;;;;38.32;25.61;99569.67;436993;1251;139136;-68
2023/06/07 04:54:17;;;;;;;3.30;2.80;;;;;;;40.69;23.11;99566.77;436307;1254;138846;-66
2023/06/07 05:04:23;;;;;;;3.60;2.70;;;;;;;42.15;20.94;99563.80;436495;1254;138671;-65
2023/06/07 05:14:29;;;;;;;4.40;2.60;;;;;;;44.24;19.11;99559.05;436668;1251;140020;-65
2023/06/07 05:24:35;;;;;;;2.70;2.40;;;;;;;46.32;17.51;99554.70;436520;1251;139012;-66
2023/06/07 05:34:42;;;;;;;3.10;2.20;;;;;;;46.47;16.08;99552.90;436610;1253;139280;-67
2023/06/07 05:44:48;;;;;;;4.10;2.20;;;;;;;42.27;16.78;99552.89;436911;1253;140546;-66
2023/06/07 05:54:55;;;;;;;3.90;2.40;;;;;;;37.08;18.92;99555.34;437335;1253;140964;-67
2023/06/07 06:05:01;;;;;;;5.40;2.80;;;;;;;33.92;20.81;99562.58;436727;1251;138578;-66
2023/06/07 06:15:08;;;;;;;6.70;3.20;;;;;;;31.93;22.69;99568.27;436625;1251;138998;-66
2023/06/07 06:25:14;;;;;;;7.60;4.90;;;;;;;31.97;23.67;99576.23;437405;1251;139046;-65
2023/06/07 06:35:20;;;;;;;4.40;3.10;;;;;;;34.32;23.11;99577.58;437172;1251;138371;-67
2023/06/07 06:45:26;;;;;;;5.50;3.10;;;;;;;39.91;20.51;99580.05;436687;1253;140381;-66
2023/06/07 06:55:32;;;;;;;4.30;3.00;;;;;;;45.82;16.94;99581.38;436654;1251;138858;-66
2023/06/07 07:05:38;;;;;;;6.20;2.70;;;;;;;48.26;14.79;99583.21;436355;1251;139401;-67
2023/06/07 07:15:44;;;;;;;3.40;3.00;;;;;;;51.11;13.46;99579.77;435897;1250;138927;-66
2023/06/07 07:25:50;;;;;;;5.40;3.70;;;;;;;50.22;12.94;99584.52;436282;1251;163119;-65
2023/06/07 07:35:56;;;;;;;10.90;5.40;;;;;;;50.56;12.55;99583.15;436246;1251;138838;-66
2023/06/07 07:46:01;;;;;;;5.30;2.90;;;;;;;50.73;12.23;99583.64;436564;1253;138438;-66
2023/06/07 07:56:07;;;;;;;7.80;3.20;;;;;;;46.72;13.05;99577.52;436635;1250;141248;-65
2023/06/07 08:06:13;;;;;;;5.30;2.40;;;;;;;38.86;16.27;99574.11;436359;1251;138604;-65
2023/06/07 08:16:19;;;;;;;6.50;1.90;;;;;;;34.26;19.34;99584.29;436638;1253;139054;-65
2023/06/07 08:26:25;;;;;;;3.30;2.50;;;;;;;32.37;21.18;99582.95;436609;1251;140369;-65
2023/06/07 08:36:31;;;;;;;3.20;2.20;;;;;;;31.18;22.29;99588.89;436502;1251;138791;-66
2023/06/07 08:46:38;;;;;;;5.30;2.30;;;;;;;30.52;23.17;99585.08;436451;1253;139337;-64
2023/06/07 08:56:44;;;;;;;5.30;2.70;;;;;;;30.10;23.59;99586.45;436307;1251;138779;-64
2023/06/07 09:06:50;;;;;;;;;;;;;;;29.79;24.05;99584.86;436235;1251;139041;-64
2023/06/07 09:16:57;;;;;;;3.00;2.50;;;;;;;29.41;24.52;99581.70;436446;1251;125468;-64
2023/06/07 09:27:04;;;;;;;5.30;2.40;;;;;;;29.38;25.19;99576.52;436268;1253;138843;-64
2023/06/07 09:37:09;;;;;;;6.10;2.10;;;;;;;29.53;24.88;99574.07;435984;1254;138831;-64
2023/06/07 09:47:23;;;;;;;2.90;2.60;;;;;;;29.74;24.15;99577.25;436554;1251;139121;-65
2023/06/07 09:57:33;;;;;;;3.50;2.30;;;;;;;29.07;24.58;99580.73;436284;1251;138990;-66
2023/06/07 10:07:41;;;;;;;4.70;1.80;;;;;;;28.73;24.90;99567.39;436933;1253;139462;-64
2023/06/07 10:17:51;;;;;;;3.90;1.90;;;;;;;28.48;25.53;99562.52;436366;1251;140252;-66
2023/06/07 10:28:09;;;;;;;5.50;1.90;;;;;;;28.18;25.91;99561.30;436839;1251;138409;-66
2023/06/07 10:38:15;;;;;;;2.90;1.80;;;;;;;27.96;26.37;99554.07;436551;1249;139703;-65
2023/06/07 10:48:39;;;;;;;10.60;2.70;;;;;;;28.22;26.80;99554.48;436693;1253;138961;-65
2023/06/07 10:58:46;;;;;;;7.00;2.20;;;;;;;28.01;26.82;99546.54;437048;1253;139531;-65
2023/06/07 11:09:12;;;;;;;5.10;2.40;;;;;;;28.18;26.81;99540.75;436650;1251;139154;-65
2023/06/07 11:19:19;;;;;;;3.60;2.40;;;;;;;27.86;26.86;99532.95;437124;1253;138505;-66
2023/06/07 11:29:25;;;;;;;4.10;2.00;;;;;;;27.65;27.08;99534.36;436899;1251;138378;-66
2023/06/07 11:39:36;;;;;;;2.40;2.20;;;;;;;27.37;27.37;99538.72;437459;1253;139353;-66
2023/06/07 11:49:42;;;;;;;2.90;2.40;;;;;;;27.32;27.62;99531.35;436614;1251;138663;-65
2023/06/07 11:59:50;;;;;;;4.70;2.10;;;;;;;27.34;27.71;99524.33;436687;1251;140726;-65
2023/06/07 12:09:56;;;;;;;8.10;2.00;;;;;;;27.14;27.87;99521.55;436657;1253;138476;-65
2023/06/07 12:20:11;;;;;;;3.70;2.00;;;;;;;27.25;27.75;99521.80;436570;1251;139444;-65
2023/06/07 12:30:21;;;;;;;4.60;2.10;;;;;;;27.24;27.64;99509.21;436851;1251;139029;-65
2023/06/07 12:40:27;;;;;;;5.90;2.40;;;;;;;27.37;28.06;99499.68;437037;1253;138704;-65
2023/06/07 12:50:33;;;;;;;3.50;2.40;;;;;;;27.64;27.74;99485.52;436798;1251;139251;-65
2023/06/07 13:00:39;;;;;;;6.00;3.10;;;;;;;27.56;28.22;99472.40;436640;1251;138821;-64
2023/06/07 13:10:45;;;;;;;2.90;2.60;;;;;;;27.33;28.40;99472.87;436938;1251;139339;-64
2023/06/07 13:20:51;;;;;;;4.10;2.20;;;;;;;27.03;28.03;99462.77;436566;1253;138506;-65
2023/06/07 13:30:57;;;;;;;4.20;2.40;;;;;;;27.01;27.94;99456.98;436518;1251;138819;-66
2023/06/07 13:41:03;;;;;;;14.40;3.10;;;;;;;27.00;27.84;99451.96;436748;1253;138395;-64
2023/06/07 13:51:10;;;;;;;4.30;2.30;;;;;;;27.16;27.31;99437.63;436727;1250;139133;-65
2023/06/07 14:01:16;;;;;;;2.40;1.90;;;;;;;27.21;27.21;99433.05;436827;1253;138885;-65
2023/06/07 14:11:23;;;;;;;2.90;2.30;;;;;;;27.40;27.74;99416.91;437045;1251;138581;-64
2023/06/07 14:21:29;;;;;;;6.50;2.20;;;;;;;27.52;27.74;99421.89;436691;1251;138821;-66
2023/06/07 14:31:35;;;;;;;4.30;2.50;;;;;;;27.28;27.56;99421.60;436858;1251;138429;-64
2023/06/07 14:41:41;;;;;;;4.50;2.10;;;;;;;27.44;27.94;99425.27;437053;1251;139732;-64
2023/06/07 14:51:49;;;;;;;3.10;2.50;;;;;;;27.48;27.95;99426.76;436768;1251;138984;-64
2023/06/07 15:01:55;;;;;;;4.20;2.60;;;;;;;27.20;29.52;99426.55;436638;1253;138873;-65
2023/06/07 15:12:01;;;;;;;3.70;3.00;;;;;;;26.97;31.24;99424.70;436588;1252;140091;-65
2023/06/07 15:22:07;;;;;;;5.50;3.40;;;;;;;27.16;32.18;99429.83;437270;1251;140058;-65
2023/06/07 15:32:13;;;;;;;6.00;2.90;;;;;;;27.49;32.77;99426.08;436888;1253;138713;-65
2023/06/07 15:42:19;;;;;;;4.90;2.90;;;;;;;27.54;32.66;99430.96;437438;1251;139362;-65
2023/06/07 15:52:25;;;;;;;3.50;2.60;;;;;;;26.66;33.36;99450.75;437075;1253;138697;-66
2023/06/07 16:02:31;;;;;;;5.00;2.90;;;;;;;25.80;34.32;99452.14;436977;1252;139158;-66
2023/06/07 16:12:37;;;;;;;3.10;2.80;;;;;;;25.33;34.61;99455.82;436906;1253;138369;-65
2023/06/07 16:22:43;;;;;;;3.80;2.30;;;;;;;24.69;34.51;99461.73;437021;1251;139793;-66
2023/06/07 16:32:48;;;;;;;3.60;2.40;;;;;;;24.19;35.13;99470.34;436426;1252;139212;-66
2023/06/07 16:42:54;;;;;;;3.60;2.70;;;;;;;23.99;35.64;99476.13;437111;1251;138618;-65
2023/06/07 16:53:00;;;;;;;4.20;1.90;;;;;;;24.08;35.80;99483.16;439216;1253;138451;-70
2023/06/07 17:03:07;;;;;;;9.10;2.40;;;;;;;23.68;36.07;99485.55;436453;1253;139142;-71
2023/06/07 17:13:13;;;;;;;3.50;2.80;;;;;;;23.34;37.29;99500.09;439581;1251;138414;-69
2023/06/07 17:23:20;;;;;;;3.10;2.60;;;;;;;22.90;39.18;99504.64;437224;1251;138786;-69
2023/06/07 17:33:26;;;;;;;5.20;2.90;;;;;;;22.59;40.93;99508.25;437577;1253;140071;-69
2023/06/07 17:43:32;;;;;;;6.60;3.20;;;;;;;22.34;42.45;99513.98;436636;1251;138587;-72
2023/06/07 17:53:38;;;;;;;4.50;2.70;;;;;;;21.96;43.89;99519.34;439275;1250;141056;-70
2023/06/07 18:03:44;;;;;;;7.50;3.40;;;;;;;21.65;45.29;99517.28;436660;1253;138602;-69
2023/06/07 18:13:49;;;;;;;5.30;3.60;;;;;;;21.38;46.29;99514.34;436464;1253;138866;-69
2023/06/07 18:23:55;;;;;;;4.30;3.70;;;;;;;21.04;47.05;99512.94;436188;1253;138940;-69
2023/06/07 18:34:03;;;;;;;3.30;3.00;;;;;;;20.66;47.72;99507.77;436264;1253;138836;-70
2023/06/07 18:44:09;;;;;;;5.50;3.10;;;;;;;20.27;48.52;99509.31;442444;1253;138492;-69
2023/06/07 18:54:15;;;;;;;13.10;4.50;;;;;;;19.96;49.26;99513.80;438332;1251;138556;-73
2023/06/07 19:04:21;;;;;;;4.30;3.80;;;;;;;19.64;50.00;99527.02;438954;1251;138552;-70
2023/06/07 19:14:30;;;;;;;7.10;5.00;;;;;;;19.36;50.92;99540.17;437348;1251;138639;-70
2023/06/07 19:24:42;;;;;;;6.60;4.90;;;;;;;19.11;51.90;99545.73;437783;1253;171071;-70
2023/06/07 19:34:49;;;;;;;10.40;5.10;;;;;;;18.86;52.90;99549.20;437065;1253;140432;-70
2023/06/07 19:44:55;;;;;;;7.20;4.50;;;;;;;18.69;53.94;99557.94;438863;1251;139174;-66
2023/06/07 19:55:00;;;;;;;5.80;4.60;;;;;;;18.52;54.64;99562.76;436766;1253;140277;-60
2023/06/07 20:05:08;;;;;;;5.80;5.20;;;;;;;18.42;55.08;99561.09;436956;1253;138942;-61
2023/06/07 20:15:13;;;;;;;5.90;4.20;;;;;;;18.34;55.24;99562.05;436827;1253;140185;-61
2023/06/07 20:25:19;;;;;;;4.00;3.60;;;;;;;18.29;54.79;99562.02;436362;1254;140545;-60
2023/06/07 20:35:25;;;;;;;4.20;3.70;;;;;;;18.25;54.50;99567.16;437016;1251;139068;-61
2023/06/07 20:45:33;;;;;;;4.70;4.10;;;;;;;18.20;54.38;99564.13;437726;1250;139022;-61
2023/06/07 20:55:39;;;;;;;6.40;4.20;;;;;;;18.06;54.34;99563.67;437280;1254;138881;-61
2023/06/07 21:05:45;;;;;;;5.50;3.60;;;;;;;17.88;54.67;99565.16;437200;1251;139990;-62
2023/06/07 21:15:51;;;;;;;6.70;4.00;;;;;;;17.72;54.98;99565.45;436966;1253;139796;-62
2023/06/07 21:25:58;;;;;;;6.80;3.90;;;;;;;17.53;55.92;99566.64;436649;1251;138824;-61
2023/06/07 21:36:04;;;;;;;10.20;4.40;;;;;;;17.22;56.93;99565.73;436552;1251;139521;-60
2023/06/07 21:46:10;;;;;;;10.10;4.20;;;;;;;16.92;57.89;99570.44;436997;1251;138805;-61
2023/06/07 21:56:16;;;;;;;8.80;4.20;;;;;;;16.64;58.61;99573.63;436370;1253;139068;-60
2023/06/07 22:06:22;;;;;;;5.50;5.00;;;;;;;16.39;59.45;99570.54;436425;1252;141137;-61
2023/06/07 22:16:30;;;;;;;6.40;4.70;;;;;;;16.20;60.22;99569.57;436563;1253;139047;-61
2023/06/07 22:26:38;;;;;;;6.10;5.40;;;;;;;16.07;60.90;99570.52;436684;1254;141563;-61
2023/06/07 22:36:44;;;;;;;6.60;5.30;;;;;;;16.14;61.25;99570.80;436743;1253;141229;-61
2023/06/07 22:46:51;;;;;;;7.50;5.00;;;;;;;16.20;61.57;99570.48;436706;1254;140006;-61
2023/06/07 22:56:57;;;;;;;6.50;5.50;;;;;;;16.23;62.08;99571.79;436518;1251;139893;-61
2023/06/07 23:07:03;;;;;;;7.40;5.30;;;;;;;16.21;62.79;99580.05;436139;1251;139442;-60
2023/06/07 23:17:10;;;;;;;8.30;6.40;;;;;;;16.15;63.16;99578.65;436858;1253;140173;-60
2023/06/07 23:27:15;;;;;;;9.10;7.30;;;;;;;16.08;63.89;99580.32;436625;1251;141120;-61
2023/06/07 23:37:21;;;;;;;11.60;6.70;;;;;;;16.03;64.54;99581.30;436624;1253;143824;-60
2023/06/07 23:47:27;;;;;;;10.20;6.80;;;;;;;15.95;65.12;99578.97;436926;1251;139714;-60
2023/06/07 23:57:33;;;;;;;9.90;6.90;;;;;;;15.86;65.73;99579.85;436682;1251;141787;-62
